Miami, Florida
Traffic Map
Current Weather Conditions
Miami, Florida
Broken Clouds
Broken Clouds
90°
Feels Like: 98°
Wind Chill: 90° Ceiling: 3500
Heat Index: 98° Visibility: 10mi
Dew Point: 73° Wind: 6mph
Humidity: 57% Direction: 50° (NE)
Pressure: 30.01in Gusts: 0mph
Raw Report DataKMIA 191453Z 05005KT 10SM BKN035 BKN250 32/23 A3001 RMK AO2 SLP162 T03220228 53012
Traffic Incident Summary
Active as of:
Severity:
Category:
InformationThere was an issue retrieving the traffic information for this location. Please try a different location or try again shortly.
Advertisements